sensor_id;sensor_type;location;lat;lon;timestamp;P1;durP1;ratioP1;P2;durP2;ratioP2
85035;SDS011;75357;49.780;9.448;2024-03-08T00:00:13;20.63;;;13.77;;
85035;SDS011;75357;49.780;9.448;2024-03-08T00:02:46;19.70;;;13.57;;
85035;SDS011;75357;49.780;9.448;2024-03-08T00:05:18;19.40;;;13.60;;
85035;SDS011;75357;49.780;9.448;2024-03-08T00:07:48;19.90;;;13.00;;
85035;SDS011;75357;49.780;9.448;2024-03-08T00:10:17;20.07;;;13.80;;
85035;SDS011;75357;49.780;9.448;2024-03-08T00:12:50;18.37;;;13.13;;
85035;SDS011;75357;49.780;9.448;2024-03-08T00:15:20;19.27;;;13.57;;
85035;SDS011;75357;49.780;9.448;2024-03-08T00:17:49;18.73;;;12.97;;
85035;SDS011;75357;49.780;9.448;2024-03-08T00:20:19;20.37;;;13.33;;
85035;SDS011;75357;49.780;9.448;2024-03-08T00:22:48;21.43;;;13.57;;
85035;SDS011;75357;49.780;9.448;2024-03-08T00:25:17;19.00;;;13.13;;
85035;SDS011;75357;49.780;9.448;2024-03-08T00:27:46;18.87;;;13.47;;
85035;SDS011;75357;49.780;9.448;2024-03-08T00:30:16;19.90;;;13.13;;
85035;SDS011;75357;49.780;9.448;2024-03-08T00:32:44;19.70;;;11.03;;
85035;SDS011;75357;49.780;9.448;2024-03-08T00:35:13;20.10;;;13.67;;
85035;SDS011;75357;49.780;9.448;2024-03-08T00:37:43;20.10;;;13.43;;
85035;SDS011;75357;49.780;9.448;2024-03-08T00:40:13;18.73;;;13.23;;
85035;SDS011;75357;49.780;9.448;2024-03-08T00:42:42;23.20;;;14.07;;
85035;SDS011;75357;49.780;9.448;2024-03-08T00:45:11;19.07;;;13.00;;
85035;SDS011;75357;49.780;9.448;2024-03-08T00:47:39;19.50;;;12.97;;
85035;SDS011;75357;49.780;9.448;2024-03-08T00:50:10;20.20;;;13.63;;
85035;SDS011;75357;49.780;9.448;2024-03-08T00:52:39;20.90;;;13.67;;
85035;SDS011;75357;49.780;9.448;2024-03-08T00:55:09;18.63;;;12.20;;
85035;SDS011;75357;49.780;9.448;2024-03-08T00:57:38;20.17;;;13.60;;
85035;SDS011;75357;49.780;9.448;2024-03-08T01:00:07;18.93;;;13.60;;
85035;SDS011;75357;49.780;9.448;2024-03-08T01:02:39;19.37;;;12.53;;
85035;SDS011;75357;49.780;9.448;2024-03-08T01:05:08;21.23;;;13.93;;
85035;SDS011;75357;49.780;9.448;2024-03-08T01:07:36;20.80;;;13.83;;
85035;SDS011;75357;49.780;9.448;2024-03-08T01:10:05;22.03;;;14.47;;
85035;SDS011;75357;49.780;9.448;2024-03-08T01:12:38;21.67;;;14.07;;
85035;SDS011;75357;49.780;9.448;2024-03-08T01:15:06;19.80;;;13.60;;
85035;SDS011;75357;49.780;9.448;2024-03-08T01:17:35;23.90;;;14.97;;
85035;SDS011;75357;49.780;9.448;2024-03-08T01:20:04;21.77;;;13.63;;
85035;SDS011;75357;49.780;9.448;2024-03-08T01:22:34;24.27;;;13.97;;
85035;SDS011;75357;49.780;9.448;2024-03-08T01:25:02;21.70;;;13.50;;
85035;SDS011;75357;49.780;9.448;2024-03-08T01:27:31;20.17;;;14.20;;
85035;SDS011;75357;49.780;9.448;2024-03-08T01:30:03;21.43;;;14.13;;
85035;SDS011;75357;49.780;9.448;2024-03-08T01:32:32;25.17;;;15.97;;
85035;SDS011;75357;49.780;9.448;2024-03-08T01:35:01;23.97;;;14.80;;
85035;SDS011;75357;49.780;9.448;2024-03-08T01:37:29;22.73;;;14.40;;
85035;SDS011;75357;49.780;9.448;2024-03-08T01:39:57;21.57;;;14.83;;
85035;SDS011;75357;49.780;9.448;2024-03-08T01:42:26;23.87;;;14.47;;
85035;SDS011;75357;49.780;9.448;2024-03-08T01:44:54;24.13;;;14.63;;
85035;SDS011;75357;49.780;9.448;2024-03-08T01:47:24;23.13;;;14.30;;
85035;SDS011;75357;49.780;9.448;2024-03-08T01:49:53;22.67;;;14.60;;
85035;SDS011;75357;49.780;9.448;2024-03-08T01:52:21;21.87;;;14.63;;
85035;SDS011;75357;49.780;9.448;2024-03-08T01:54:51;22.43;;;14.83;;
85035;SDS011;75357;49.780;9.448;2024-03-08T01:57:20;21.37;;;14.37;;
85035;SDS011;75357;49.780;9.448;2024-03-08T01:59:49;23.87;;;15.03;;
85035;SDS011;75357;49.780;9.448;2024-03-08T02:02:21;24.70;;;14.50;;
85035;SDS011;75357;49.780;9.448;2024-03-08T02:04:51;22.37;;;14.13;;
85035;SDS011;75357;49.780;9.448;2024-03-08T02:07:19;22.43;;;14.80;;
85035;SDS011;75357;49.780;9.448;2024-03-08T02:09:49;22.33;;;14.60;;
85035;SDS011;75357;49.780;9.448;2024-03-08T02:12:17;23.37;;;15.10;;
85035;SDS011;75357;49.780;9.448;2024-03-08T02:14:47;21.63;;;14.87;;
85035;SDS011;75357;49.780;9.448;2024-03-08T02:17:15;23.23;;;15.30;;
85035;SDS011;75357;49.780;9.448;2024-03-08T02:19:44;23.07;;;15.17;;
85035;SDS011;75357;49.780;9.448;2024-03-08T02:22:14;21.87;;;15.07;;
85035;SDS011;75357;49.780;9.448;2024-03-08T02:24:43;23.57;;;14.90;;
85035;SDS011;75357;49.780;9.448;2024-03-08T02:27:12;21.90;;;14.50;;
85035;SDS011;75357;49.780;9.448;2024-03-08T02:29:40;23.87;;;14.93;;
85035;SDS011;75357;49.780;9.448;2024-03-08T02:32:11;21.10;;;13.97;;
85035;SDS011;75357;49.780;9.448;2024-03-08T02:34:39;25.80;;;14.93;;
85035;SDS011;75357;49.780;9.448;2024-03-08T02:37:07;24.60;;;15.13;;
85035;SDS011;75357;49.780;9.448;2024-03-08T02:39:37;23.97;;;14.47;;
85035;SDS011;75357;49.780;9.448;2024-03-08T02:42:05;25.80;;;15.03;;
85035;SDS011;75357;49.780;9.448;2024-03-08T02:44:34;25.17;;;15.47;;
85035;SDS011;75357;49.780;9.448;2024-03-08T02:47:02;24.77;;;15.27;;
85035;SDS011;75357;49.780;9.448;2024-03-08T02:49:32;24.03;;;15.60;;
85035;SDS011;75357;49.780;9.448;2024-03-08T02:52:01;26.50;;;15.97;;
85035;SDS011;75357;49.780;9.448;2024-03-08T02:54:29;22.53;;;15.03;;
85035;SDS011;75357;49.780;9.448;2024-03-08T02:56:58;24.67;;;15.47;;
85035;SDS011;75357;49.780;9.448;2024-03-08T02:59:27;23.43;;;14.77;;
85035;SDS011;75357;49.780;9.448;2024-03-08T03:01:55;22.43;;;15.10;;
85035;SDS011;75357;49.780;9.448;2024-03-08T03:04:24;24.67;;;15.17;;
85035;SDS011;75357;49.780;9.448;2024-03-08T03:06:52;24.60;;;15.23;;
85035;SDS011;75357;49.780;9.448;2024-03-08T03:09:21;23.03;;;14.73;;
85035;SDS011;75357;49.780;9.448;2024-03-08T03:11:54;24.80;;;15.63;;
85035;SDS011;75357;49.780;9.448;2024-03-08T03:14:24;26.67;;;15.17;;
85035;SDS011;75357;49.780;9.448;2024-03-08T03:16:53;24.23;;;14.73;;
85035;SDS011;75357;49.780;9.448;2024-03-08T03:19:21;26.83;;;16.07;;
85035;SDS011;75357;49.780;9.448;2024-03-08T03:21:50;27.13;;;16.13;;
85035;SDS011;75357;49.780;9.448;2024-03-08T03:24:19;24.57;;;15.73;;
85035;SDS011;75357;49.780;9.448;2024-03-08T03:26:47;26.73;;;15.70;;
85035;SDS011;75357;49.780;9.448;2024-03-08T03:29:16;28.00;;;15.77;;
85035;SDS011;75357;49.780;9.448;2024-03-08T03:31:46;26.10;;;15.80;;
85035;SDS011;75357;49.780;9.448;2024-03-08T03:34:14;26.20;;;15.47;;
85035;SDS011;75357;49.780;9.448;2024-03-08T03:36:42;26.60;;;16.13;;
85035;SDS011;75357;49.780;9.448;2024-03-08T03:39:13;27.20;;;15.37;;
85035;SDS011;75357;49.780;9.448;2024-03-08T03:41:43;24.70;;;15.50;;
85035;SDS011;75357;49.780;9.448;2024-03-08T03:44:13;25.33;;;15.70;;
85035;SDS011;75357;49.780;9.448;2024-03-08T03:46:41;25.77;;;15.87;;
85035;SDS011;75357;49.780;9.448;2024-03-08T03:49:13;26.53;;;15.97;;
85035;SDS011;75357;49.780;9.448;2024-03-08T03:51:41;25.70;;;16.07;;
85035;SDS011;75357;49.780;9.448;2024-03-08T03:54:09;24.10;;;15.43;;
85035;SDS011;75357;49.780;9.448;2024-03-08T03:56:38;25.17;;;16.33;;
85035;SDS011;75357;49.780;9.448;2024-03-08T03:59:07;27.63;;;16.57;;
85035;SDS011;75357;49.780;9.448;2024-03-08T04:01:35;28.63;;;16.47;;
85035;SDS011;75357;49.780;9.448;2024-03-08T04:04:05;27.50;;;16.17;;
85035;SDS011;75357;49.780;9.448;2024-03-08T04:06:34;25.07;;;15.27;;
85035;SDS011;75357;49.780;9.448;2024-03-08T04:09:02;25.30;;;15.47;;
85035;SDS011;75357;49.780;9.448;2024-03-08T04:11:32;26.50;;;16.00;;
85035;SDS011;75357;49.780;9.448;2024-03-08T04:14:00;26.40;;;16.23;;
85035;SDS011;75357;49.780;9.448;2024-03-08T04:16:28;27.03;;;16.43;;
85035;SDS011;75357;49.780;9.448;2024-03-08T04:18:56;26.27;;;16.23;;
85035;SDS011;75357;49.780;9.448;2024-03-08T04:21:25;40.07;;;24.30;;
85035;SDS011;75357;49.780;9.448;2024-03-08T04:23:55;37.63;;;24.40;;
85035;SDS011;75357;49.780;9.448;2024-03-08T04:26:23;36.77;;;24.50;;
85035;SDS011;75357;49.780;9.448;2024-03-08T04:28:52;30.90;;;19.43;;
85035;SDS011;75357;49.780;9.448;2024-03-08T04:31:20;34.57;;;21.07;;
85035;SDS011;75357;49.780;9.448;2024-03-08T04:33:49;28.60;;;17.57;;
85035;SDS011;75357;49.780;9.448;2024-03-08T04:36:17;31.80;;;18.67;;
85035;SDS011;75357;49.780;9.448;2024-03-08T04:38:46;27.70;;;16.80;;
85035;SDS011;75357;49.780;9.448;2024-03-08T04:41:15;27.90;;;16.67;;
85035;SDS011;75357;49.780;9.448;2024-03-08T04:43:44;28.37;;;16.53;;
85035;SDS011;75357;49.780;9.448;2024-03-08T04:46:13;34.83;;;18.80;;
85035;SDS011;75357;49.780;9.448;2024-03-08T04:48:41;52.70;;;27.03;;
85035;SDS011;75357;49.780;9.448;2024-03-08T04:51:10;67.60;;;32.67;;
85035;SDS011;75357;49.780;9.448;2024-03-08T04:53:38;50.73;;;24.27;;
85035;SDS011;75357;49.780;9.448;2024-03-08T04:56:06;40.10;;;21.30;;
85035;SDS011;75357;49.780;9.448;2024-03-08T04:58:36;46.10;;;21.73;;
85035;SDS011;75357;49.780;9.448;2024-03-08T05:01:05;37.77;;;20.77;;
85035;SDS011;75357;49.780;9.448;2024-03-08T05:03:36;37.70;;;19.73;;
85035;SDS011;75357;49.780;9.448;2024-03-08T05:06:05;35.30;;;19.43;;
85035;SDS011;75357;49.780;9.448;2024-03-08T05:08:34;32.77;;;20.13;;
85035;SDS011;75357;49.780;9.448;2024-03-08T05:11:03;28.43;;;17.40;;
85035;SDS011;75357;49.780;9.448;2024-03-08T05:13:33;33.23;;;17.50;;
85035;SDS011;75357;49.780;9.448;2024-03-08T05:16:03;34.93;;;18.73;;
85035;SDS011;75357;49.780;9.448;2024-03-08T05:18:34;33.67;;;18.93;;
85035;SDS011;75357;49.780;9.448;2024-03-08T05:21:02;36.57;;;19.00;;
85035;SDS011;75357;49.780;9.448;2024-03-08T05:23:31;38.33;;;20.17;;
85035;SDS011;75357;49.780;9.448;2024-03-08T05:26:01;42.40;;;20.00;;
85035;SDS011;75357;49.780;9.448;2024-03-08T05:28:32;40.80;;;19.70;;
85035;SDS011;75357;49.780;9.448;2024-03-08T05:31:01;38.07;;;19.57;;
85035;SDS011;75357;49.780;9.448;2024-03-08T05:33:30;33.50;;;18.83;;
85035;SDS011;75357;49.780;9.448;2024-03-08T05:36:01;30.33;;;18.23;;
85035;SDS011;75357;49.780;9.448;2024-03-08T05:38:30;32.07;;;18.70;;
85035;SDS011;75357;49.780;9.448;2024-03-08T05:41:01;31.27;;;17.83;;
85035;SDS011;75357;49.780;9.448;2024-03-08T05:43:29;29.60;;;17.93;;
85035;SDS011;75357;49.780;9.448;2024-03-08T05:45:57;31.43;;;18.10;;
85035;SDS011;75357;49.780;9.448;2024-03-08T05:48:25;29.20;;;17.63;;
85035;SDS011;75357;49.780;9.448;2024-03-08T05:50:55;36.23;;;18.87;;
85035;SDS011;75357;49.780;9.448;2024-03-08T05:53:24;48.73;;;21.97;;
85035;SDS011;75357;49.780;9.448;2024-03-08T05:55:55;38.27;;;20.03;;
85035;SDS011;75357;49.780;9.448;2024-03-08T05:58:24;39.43;;;19.50;;
85035;SDS011;75357;49.780;9.448;2024-03-08T06:00:52;34.30;;;19.37;;
85035;SDS011;75357;49.780;9.448;2024-03-08T06:03:21;33.67;;;19.47;;
85035;SDS011;75357;49.780;9.448;2024-03-08T06:05:49;34.13;;;18.93;;
85035;SDS011;75357;49.780;9.448;2024-03-08T06:08:19;36.70;;;20.57;;
85035;SDS011;75357;49.780;9.448;2024-03-08T06:10:47;45.93;;;22.13;;
85035;SDS011;75357;49.780;9.448;2024-03-08T06:13:19;44.53;;;21.50;;
85035;SDS011;75357;49.780;9.448;2024-03-08T06:15:47;52.93;;;27.60;;
85035;SDS011;75357;49.780;9.448;2024-03-08T06:18:16;47.87;;;27.17;;
85035;SDS011;75357;49.780;9.448;2024-03-08T06:20:44;47.97;;;26.07;;
85035;SDS011;75357;49.780;9.448;2024-03-08T06:23:13;51.40;;;28.27;;
85035;SDS011;75357;49.780;9.448;2024-03-08T06:25:45;47.83;;;26.47;;
85035;SDS011;75357;49.780;9.448;2024-03-08T06:28:17;51.30;;;27.87;;
85035;SDS011;75357;49.780;9.448;2024-03-08T06:30:45;54.00;;;29.67;;
85035;SDS011;75357;49.780;9.448;2024-03-08T06:33:17;41.67;;;23.03;;
85035;SDS011;75357;49.780;9.448;2024-03-08T06:35:46;38.03;;;21.73;;
85035;SDS011;75357;49.780;9.448;2024-03-08T06:38:14;35.17;;;21.80;;
85035;SDS011;75357;49.780;9.448;2024-03-08T06:40:43;36.17;;;19.90;;
85035;SDS011;75357;49.780;9.448;2024-03-08T06:43:15;33.70;;;20.83;;
85035;SDS011;75357;49.780;9.448;2024-03-08T06:45:44;39.23;;;22.77;;
85035;SDS011;75357;49.780;9.448;2024-03-08T06:48:15;35.03;;;20.77;;
85035;SDS011;75357;49.780;9.448;2024-03-08T06:50:44;33.00;;;19.97;;
85035;SDS011;75357;49.780;9.448;2024-03-08T06:53:13;32.37;;;19.60;;
85035;SDS011;75357;49.780;9.448;2024-03-08T06:55:44;32.50;;;19.53;;
85035;SDS011;75357;49.780;9.448;2024-03-08T06:58:17;28.20;;;18.30;;
85035;SDS011;75357;49.780;9.448;2024-03-08T07:00:45;33.17;;;18.37;;
85035;SDS011;75357;49.780;9.448;2024-03-08T07:03:18;30.57;;;17.87;;
85035;SDS011;75357;49.780;9.448;2024-03-08T07:05:48;31.33;;;19.30;;
85035;SDS011;75357;49.780;9.448;2024-03-08T07:08:16;30.60;;;19.43;;
85035;SDS011;75357;49.780;9.448;2024-03-08T07:10:45;27.57;;;17.53;;
85035;SDS011;75357;49.780;9.448;2024-03-08T07:13:13;28.23;;;18.67;;
85035;SDS011;75357;49.780;9.448;2024-03-08T07:15:43;32.53;;;18.73;;
85035;SDS011;75357;49.780;9.448;2024-03-08T07:18:11;31.53;;;19.93;;
85035;SDS011;75357;49.780;9.448;2024-03-08T07:20:41;31.33;;;19.50;;
85035;SDS011;75357;49.780;9.448;2024-03-08T07:23:10;30.63;;;18.97;;
85035;SDS011;75357;49.780;9.448;2024-03-08T07:25:58;33.23;;;18.57;;
85035;SDS011;75357;49.780;9.448;2024-03-08T07:28:27;36.87;;;20.73;;
85035;SDS011;75357;49.780;9.448;2024-03-08T07:30:58;30.00;;;19.23;;
85035;SDS011;75357;49.780;9.448;2024-03-08T07:33:43;30.33;;;18.40;;
85035;SDS011;75357;49.780;9.448;2024-03-08T07:36:12;32.10;;;19.53;;
85035;SDS011;75357;49.780;9.448;2024-03-08T07:38:41;29.43;;;18.63;;
85035;SDS011;75357;49.780;9.448;2024-03-08T07:41:10;32.50;;;19.17;;
85035;SDS011;75357;49.780;9.448;2024-03-08T07:43:41;29.90;;;19.53;;
85035;SDS011;75357;49.780;9.448;2024-03-08T07:46:10;29.03;;;19.53;;
85035;SDS011;75357;49.780;9.448;2024-03-08T07:48:39;30.60;;;17.03;;
85035;SDS011;75357;49.780;9.448;2024-03-08T07:51:09;29.30;;;19.17;;
85035;SDS011;75357;49.780;9.448;2024-03-08T07:53:38;29.83;;;18.87;;
85035;SDS011;75357;49.780;9.448;2024-03-08T07:56:07;24.10;;;13.37;;
85035;SDS011;75357;49.780;9.448;2024-03-08T07:58:39;27.47;;;16.90;;
85035;SDS011;75357;49.780;9.448;2024-03-08T08:01:08;24.13;;;12.80;;
85035;SDS011;75357;49.780;9.448;2024-03-08T08:03:44;28.30;;;16.80;;
85035;SDS011;75357;49.780;9.448;2024-03-08T08:06:12;26.97;;;15.07;;
85035;SDS011;75357;49.780;9.448;2024-03-08T08:08:42;20.80;;;11.60;;
85035;SDS011;75357;49.780;9.448;2024-03-08T08:11:11;17.83;;;10.57;;
85035;SDS011;75357;49.780;9.448;2024-03-08T08:13:39;18.73;;;9.83;;
85035;SDS011;75357;49.780;9.448;2024-03-08T08:16:09;25.00;;;15.60;;
85035;SDS011;75357;49.780;9.448;2024-03-08T08:18:41;22.17;;;11.60;;
85035;SDS011;75357;49.780;9.448;2024-03-08T08:21:10;23.20;;;14.53;;
85035;SDS011;75357;49.780;9.448;2024-03-08T08:23:38;28.43;;;18.63;;
85035;SDS011;75357;49.780;9.448;2024-03-08T08:26:07;25.30;;;15.60;;
85035;SDS011;75357;49.780;9.448;2024-03-08T08:28:35;23.80;;;16.47;;
85035;SDS011;75357;49.780;9.448;2024-03-08T08:31:04;27.23;;;17.57;;
85035;SDS011;75357;49.780;9.448;2024-03-08T08:33:34;26.87;;;18.40;;
85035;SDS011;75357;49.780;9.448;2024-03-08T08:36:05;18.77;;;11.07;;
85035;SDS011;75357;49.780;9.448;2024-03-08T08:38:33;24.03;;;14.77;;
85035;SDS011;75357;49.780;9.448;2024-03-08T08:41:02;27.50;;;18.07;;
85035;SDS011;75357;49.780;9.448;2024-03-08T08:43:32;26.60;;;17.87;;
85035;SDS011;75357;49.780;9.448;2024-03-08T08:46:05;26.27;;;16.77;;
85035;SDS011;75357;49.780;9.448;2024-03-08T08:48:34;25.77;;;17.50;;
85035;SDS011;75357;49.780;9.448;2024-03-08T08:51:02;26.20;;;17.70;;
85035;SDS011;75357;49.780;9.448;2024-03-08T08:53:34;24.73;;;16.90;;
85035;SDS011;75357;49.780;9.448;2024-03-08T08:56:03;29.73;;;18.13;;
85035;SDS011;75357;49.780;9.448;2024-03-08T08:58:36;28.13;;;18.63;;
85035;SDS011;75357;49.780;9.448;2024-03-08T09:01:04;26.23;;;17.20;;
85035;SDS011;75357;49.780;9.448;2024-03-08T09:03:34;27.20;;;17.00;;
85035;SDS011;75357;49.780;9.448;2024-03-08T09:06:03;23.77;;;16.80;;
85035;SDS011;75357;49.780;9.448;2024-03-08T09:08:37;24.73;;;17.20;;
85035;SDS011;75357;49.780;9.448;2024-03-08T09:11:06;25.70;;;18.10;;
85035;SDS011;75357;49.780;9.448;2024-03-08T09:13:34;26.13;;;17.40;;
85035;SDS011;75357;49.780;9.448;2024-03-08T09:16:03;26.00;;;17.27;;
85035;SDS011;75357;49.780;9.448;2024-03-08T09:18:33;25.53;;;16.60;;
85035;SDS011;75357;49.780;9.448;2024-03-08T09:21:01;25.60;;;16.43;;
85035;SDS011;75357;49.780;9.448;2024-03-08T09:23:29;25.67;;;16.67;;
85035;SDS011;75357;49.780;9.448;2024-03-08T09:25:59;26.87;;;16.77;;
85035;SDS011;75357;49.780;9.448;2024-03-08T09:28:29;25.20;;;15.57;;
85035;SDS011;75357;49.780;9.448;2024-03-08T09:30:59;23.10;;;16.23;;
85035;SDS011;75357;49.780;9.448;2024-03-08T09:33:28;25.93;;;17.13;;
85035;SDS011;75357;49.780;9.448;2024-03-08T09:35:58;21.47;;;14.33;;
85035;SDS011;75357;49.780;9.448;2024-03-08T09:38:29;24.90;;;15.83;;
85035;SDS011;75357;49.780;9.448;2024-03-08T09:41:02;24.27;;;16.80;;
85035;SDS011;75357;49.780;9.448;2024-03-08T09:43:31;22.47;;;15.87;;
85035;SDS011;75357;49.780;9.448;2024-03-08T09:45:59;23.47;;;15.93;;
85035;SDS011;75357;49.780;9.448;2024-03-08T09:48:28;22.13;;;15.17;;
85035;SDS011;75357;49.780;9.448;2024-03-08T09:50:56;23.23;;;16.17;;
85035;SDS011;75357;49.780;9.448;2024-03-08T09:53:24;21.03;;;14.47;;
85035;SDS011;75357;49.780;9.448;2024-03-08T09:55:55;24.07;;;15.10;;
85035;SDS011;75357;49.780;9.448;2024-03-08T09:58:24;20.57;;;14.40;;
85035;SDS011;75357;49.780;9.448;2024-03-08T10:01:20;22.30;;;14.33;;
85035;SDS011;75357;49.780;9.448;2024-03-08T10:03:49;21.50;;;14.10;;
85035;SDS011;75357;49.780;9.448;2024-03-08T10:06:22;20.83;;;14.17;;
85035;SDS011;75357;49.780;9.448;2024-03-08T10:08:51;20.00;;;14.07;;
85035;SDS011;75357;49.780;9.448;2024-03-08T10:11:19;20.23;;;14.60;;
85035;SDS011;75357;49.780;9.448;2024-03-08T10:13:49;19.53;;;13.47;;
85035;SDS011;75357;49.780;9.448;2024-03-08T10:16:18;22.90;;;14.63;;
85035;SDS011;75357;49.780;9.448;2024-03-08T10:18:46;20.93;;;13.47;;
85035;SDS011;75357;49.780;9.448;2024-03-08T10:21:14;19.27;;;13.87;;
85035;SDS011;75357;49.780;9.448;2024-03-08T10:23:43;20.90;;;15.20;;
85035;SDS011;75357;49.780;9.448;2024-03-08T10:26:12;20.77;;;14.80;;
85035;SDS011;75357;49.780;9.448;2024-03-08T10:28:42;22.63;;;15.40;;
85035;SDS011;75357;49.780;9.448;2024-03-08T10:31:13;22.47;;;14.87;;
85035;SDS011;75357;49.780;9.448;2024-03-08T10:33:45;71.17;;;37.83;;
85035;SDS011;75357;49.780;9.448;2024-03-08T10:36:13;21.70;;;14.50;;
85035;SDS011;75357;49.780;9.448;2024-03-08T10:38:42;25.43;;;17.23;;
85035;SDS011;75357;49.780;9.448;2024-03-08T10:41:14;20.63;;;15.17;;
85035;SDS011;75357;49.780;9.448;2024-03-08T10:43:48;21.87;;;15.40;;
85035;SDS011;75357;49.780;9.448;2024-03-08T10:46:28;21.57;;;15.23;;
85035;SDS011;75357;49.780;9.448;2024-03-08T10:49:00;24.10;;;17.97;;
85035;SDS011;75357;49.780;9.448;2024-03-08T10:51:32;23.20;;;16.00;;
85035;SDS011;75357;49.780;9.448;2024-03-08T10:54:01;20.10;;;14.70;;
85035;SDS011;75357;49.780;9.448;2024-03-08T10:56:30;22.33;;;15.60;;
85035;SDS011;75357;49.780;9.448;2024-03-08T10:58:58;22.33;;;15.40;;
85035;SDS011;75357;49.780;9.448;2024-03-08T11:01:28;20.93;;;14.03;;
85035;SDS011;75357;49.780;9.448;2024-03-08T11:03:57;21.93;;;15.20;;
85035;SDS011;75357;49.780;9.448;2024-03-08T11:06:29;20.97;;;14.67;;
85035;SDS011;75357;49.780;9.448;2024-03-08T11:09:08;21.50;;;15.03;;
85035;SDS011;75357;49.780;9.448;2024-03-08T11:11:43;18.40;;;10.77;;
85035;SDS011;75357;49.780;9.448;2024-03-08T11:14:42;20.80;;;14.43;;
85035;SDS011;75357;49.780;9.448;2024-03-08T11:17:15;21.93;;;14.90;;
85035;SDS011;75357;49.780;9.448;2024-03-08T11:19:45;20.10;;;13.90;;
85035;SDS011;75357;49.780;9.448;2024-03-08T11:22:20;20.27;;;14.80;;
85035;SDS011;75357;49.780;9.448;2024-03-08T11:24:51;19.23;;;13.90;;
85035;SDS011;75357;49.780;9.448;2024-03-08T11:27:19;21.73;;;14.47;;
85035;SDS011;75357;49.780;9.448;2024-03-08T11:30:00;20.07;;;13.73;;
85035;SDS011;75357;49.780;9.448;2024-03-08T11:32:45;19.17;;;13.67;;
85035;SDS011;75357;49.780;9.448;2024-03-08T11:35:18;19.00;;;13.67;;
85035;SDS011;75357;49.780;9.448;2024-03-08T11:37:47;18.40;;;13.50;;
85035;SDS011;75357;49.780;9.448;2024-03-08T11:40:15;19.57;;;13.67;;
85035;SDS011;75357;49.780;9.448;2024-03-08T11:42:46;18.57;;;13.07;;
85035;SDS011;75357;49.780;9.448;2024-03-08T11:45:15;21.97;;;14.97;;
85035;SDS011;75357;49.780;9.448;2024-03-08T11:47:46;19.17;;;13.87;;
85035;SDS011;75357;49.780;9.448;2024-03-08T11:50:17;19.07;;;13.47;;
85035;SDS011;75357;49.780;9.448;2024-03-08T11:52:47;22.23;;;13.23;;
85035;SDS011;75357;49.780;9.448;2024-03-08T11:55:16;18.50;;;13.53;;
85035;SDS011;75357;49.780;9.448;2024-03-08T11:57:47;20.37;;;14.00;;
85035;SDS011;75357;49.780;9.448;2024-03-08T12:00:16;20.27;;;14.50;;
85035;SDS011;75357;49.780;9.448;2024-03-08T12:03:04;20.87;;;14.20;;
85035;SDS011;75357;49.780;9.448;2024-03-08T12:05:33;18.23;;;13.50;;
85035;SDS011;75357;49.780;9.448;2024-03-08T12:08:01;17.13;;;12.13;;
85035;SDS011;75357;49.780;9.448;2024-03-08T12:10:31;20.40;;;14.30;;
85035;SDS011;75357;49.780;9.448;2024-03-08T12:13:01;18.53;;;14.07;;
85035;SDS011;75357;49.780;9.448;2024-03-08T12:15:31;18.60;;;13.73;;
85035;SDS011;75357;49.780;9.448;2024-03-08T12:18:00;22.27;;;15.63;;
85035;SDS011;75357;49.780;9.448;2024-03-08T12:20:32;18.60;;;13.87;;
85035;SDS011;75357;49.780;9.448;2024-03-08T12:23:01;17.47;;;13.33;;
85035;SDS011;75357;49.780;9.448;2024-03-08T12:25:32;19.00;;;14.13;;
85035;SDS011;75357;49.780;9.448;2024-03-08T12:28:08;20.70;;;13.87;;
85035;SDS011;75357;49.780;9.448;2024-03-08T12:30:45;17.67;;;12.50;;
85035;SDS011;75357;49.780;9.448;2024-03-08T12:33:15;18.50;;;13.70;;
85035;SDS011;75357;49.780;9.448;2024-03-08T12:35:51;18.63;;;13.03;;
85035;SDS011;75357;49.780;9.448;2024-03-08T12:38:22;18.63;;;14.53;;
85035;SDS011;75357;49.780;9.448;2024-03-08T12:40:54;18.53;;;13.80;;
85035;SDS011;75357;49.780;9.448;2024-03-08T12:43:24;18.93;;;13.87;;
85035;SDS011;75357;49.780;9.448;2024-03-08T12:45:57;20.63;;;14.57;;
85035;SDS011;75357;49.780;9.448;2024-03-08T12:48:26;17.90;;;13.67;;
85035;SDS011;75357;49.780;9.448;2024-03-08T12:50:55;18.47;;;14.10;;
85035;SDS011;75357;49.780;9.448;2024-03-08T12:53:24;20.07;;;13.33;;
85035;SDS011;75357;49.780;9.448;2024-03-08T12:55:55;21.30;;;13.97;;
85035;SDS011;75357;49.780;9.448;2024-03-08T12:58:24;19.73;;;14.73;;
85035;SDS011;75357;49.780;9.448;2024-03-08T13:00:53;18.90;;;13.57;;
85035;SDS011;75357;49.780;9.448;2024-03-08T13:03:22;18.40;;;14.10;;
85035;SDS011;75357;49.780;9.448;2024-03-08T13:05:50;19.67;;;13.87;;
85035;SDS011;75357;49.780;9.448;2024-03-08T13:08:20;19.07;;;14.30;;
85035;SDS011;75357;49.780;9.448;2024-03-08T13:10:51;20.40;;;14.47;;
85035;SDS011;75357;49.780;9.448;2024-03-08T13:13:20;18.63;;;13.80;;
85035;SDS011;75357;49.780;9.448;2024-03-08T13:15:49;18.50;;;14.07;;
85035;SDS011;75357;49.780;9.448;2024-03-08T13:18:17;19.60;;;13.07;;
85035;SDS011;75357;49.780;9.448;2024-03-08T13:20:46;19.07;;;13.47;;
85035;SDS011;75357;49.780;9.448;2024-03-08T13:23:19;16.97;;;12.90;;
85035;SDS011;75357;49.780;9.448;2024-03-08T13:25:48;18.40;;;13.60;;
85035;SDS011;75357;49.780;9.448;2024-03-08T13:28:16;18.27;;;14.10;;
85035;SDS011;75357;49.780;9.448;2024-03-08T13:30:49;17.80;;;13.53;;
85035;SDS011;75357;49.780;9.448;2024-03-08T13:33:24;17.57;;;13.43;;
85035;SDS011;75357;49.780;9.448;2024-03-08T13:35:53;15.10;;;9.67;;
85035;SDS011;75357;49.780;9.448;2024-03-08T13:38:32;18.23;;;12.60;;
85035;SDS011;75357;49.780;9.448;2024-03-08T13:41:00;18.20;;;13.37;;
85035;SDS011;75357;49.780;9.448;2024-03-08T13:43:29;16.93;;;11.80;;
85035;SDS011;75357;49.780;9.448;2024-03-08T13:46:01;15.67;;;11.77;;
85035;SDS011;75357;49.780;9.448;2024-03-08T13:48:29;16.17;;;11.50;;
85035;SDS011;75357;49.780;9.448;2024-03-08T13:50:57;15.97;;;11.50;;
85035;SDS011;75357;49.780;9.448;2024-03-08T13:53:26;14.73;;;10.83;;
85035;SDS011;75357;49.780;9.448;2024-03-08T13:55:56;14.83;;;11.40;;
85035;SDS011;75357;49.780;9.448;2024-03-08T13:58:24;16.17;;;11.00;;
85035;SDS011;75357;49.780;9.448;2024-03-08T14:00:53;14.50;;;10.93;;
85035;SDS011;75357;49.780;9.448;2024-03-08T14:03:22;16.70;;;10.37;;
85035;SDS011;75357;49.780;9.448;2024-03-08T14:05:53;14.80;;;10.10;;
85035;SDS011;75357;49.780;9.448;2024-03-08T14:08:22;14.60;;;10.80;;
85035;SDS011;75357;49.780;9.448;2024-03-08T14:10:51;14.20;;;11.20;;
85035;SDS011;75357;49.780;9.448;2024-03-08T14:13:22;14.13;;;10.83;;
85035;SDS011;75357;49.780;9.448;2024-03-08T14:15:51;16.30;;;10.87;;
85035;SDS011;75357;49.780;9.448;2024-03-08T14:18:20;14.67;;;10.27;;
85035;SDS011;75357;49.780;9.448;2024-03-08T14:20:48;14.10;;;10.50;;
85035;SDS011;75357;49.780;9.448;2024-03-08T14:23:17;14.07;;;10.67;;
85035;SDS011;75357;49.780;9.448;2024-03-08T14:25:46;13.47;;;10.43;;
85035;SDS011;75357;49.780;9.448;2024-03-08T14:28:18;14.97;;;10.40;;
85035;SDS011;75357;49.780;9.448;2024-03-08T14:30:48;13.43;;;9.87;;
85035;SDS011;75357;49.780;9.448;2024-03-08T14:33:18;13.00;;;9.77;;
85035;SDS011;75357;49.780;9.448;2024-03-08T14:35:46;14.03;;;10.00;;